Time;durP1;ratioP1;P1;durP2;ratioP2;P2;SDS_P1;SDS_P2;PMS_P1;PMS_P2;Temp;Humidity;BMP_temperature;BMP_pressure;BME280_temperature;BME280_humidity;BME280_pressure;Samples;Min_cycle;Max_cycle;Signal;HPM_P1;HPM_P2
2021/05/23 00:00:23;;;;;;;8.10;5.00;;;10.10;99.90;;;;;;5030137;28;20025;-46
2021/05/23 00:02:48;;;;;;;5.60;4.47;;;10.00;99.90;;;;;;5030011;28;20104;-46
2021/05/23 00:05:17;;;;;;;6.57;5.20;;;10.00;99.90;;;;;;5030211;28;20105;-46
2021/05/23 00:07:50;;;;;;;7.35;5.28;;;10.00;99.90;;;;;;5029233;28;20045;-46
2021/05/23 00:10:16;;;;;;;11.20;4.85;;;10.00;99.90;;;;;;5028725;28;20570;-47
2021/05/23 00:12:42;;;;;;;6.15;4.80;;;10.00;99.90;;;;;;5029876;28;20033;-46
2021/05/23 00:15:09;;;;;;;5.53;4.32;;;9.90;99.90;;;;;;5029707;28;20026;-47
2021/05/23 00:17:35;;;;;;;8.63;4.80;;;10.00;99.90;;;;;;5044539;28;20050;-46
2021/05/23 00:20:01;;;;;;;5.15;4.65;;;10.00;99.90;;;;;;5049789;28;20029;-47
2021/05/23 00:22:27;;;;;;;7.07;4.72;;;10.00;99.90;;;;;;5049869;28;20044;-46
2021/05/23 00:24:53;;;;;;;6.50;4.22;;;10.10;99.90;;;;;;5049697;28;20025;-47
2021/05/23 00:27:18;;;;;;;4.80;4.30;;;10.10;99.90;;;;;;5049168;28;20083;-46
2021/05/23 00:29:44;;;;;;;7.45;4.13;;;10.10;99.90;;;;;;5049101;28;20025;-47
2021/05/23 00:32:09;;;;;;;6.40;4.72;;;10.20;99.90;;;;;;5049052;28;20108;-48
2021/05/23 00:34:35;;;;;;;4.68;3.78;;;10.20;99.90;;;;;;5049492;28;20029;-46
2021/05/23 00:37:00;;;;;;;5.22;4.18;;;10.30;99.90;;;;;;5048337;28;20406;-46
2021/05/23 00:39:26;;;;;;;5.25;4.35;;;10.30;99.90;;;;;;5048788;28;20036;-45
2021/05/23 00:41:51;;;;;;;5.20;4.32;;;10.30;99.90;;;;;;5049313;28;20055;-47
2021/05/23 00:44:17;;;;;;;5.70;4.72;;;10.30;99.90;;;;;;5049206;28;20029;-46
2021/05/23 00:46:42;;;;;;;6.95;4.60;;;10.30;99.90;;;;;;5049201;28;20116;-47
2021/05/23 00:49:08;;;;;;;7.15;4.53;;;10.30;99.90;;;;;;5048817;28;20024;-48
2021/05/23 00:51:33;;;;;;;7.65;4.43;;;10.30;99.90;;;;;;5040385;28;20033;-49
2021/05/23 00:53:59;;;;;;;5.30;4.22;;;10.30;99.90;;;;;;5029535;28;20099;-46
2021/05/23 00:56:25;;;;;;;6.75;4.53;;;10.20;99.90;;;;;;5029291;28;20484;-47
2021/05/23 00:58:50;;;;;;;5.43;4.35;;;10.20;99.90;;;;;;5028413;28;20411;-46
2021/05/23 01:01:43;;;;;;;4.40;4.00;;;10.30;99.90;;;;;;5029085;28;20029;-47
2021/05/23 01:04:09;;;;;;;6.55;4.80;;;10.30;99.90;;;;;;5028998;28;20029;-47
2021/05/23 01:06:35;;;;;;;5.78;4.07;;;10.30;99.90;;;;;;5028916;28;20029;-47
2021/05/23 01:09:01;;;;;;;10.13;4.75;;;10.30;99.90;;;;;;5028466;28;20487;-47
2021/05/23 01:11:29;;;;;;;7.32;4.47;;;10.30;99.90;;;;;;5028746;28;20057;-46
2021/05/23 01:14:20;;;;;;;4.05;3.55;;;10.30;99.90;;;;;;5028775;28;20533;-46
2021/05/23 01:16:50;;;;;;;4.63;3.88;;;10.30;99.90;;;;;;5024967;28;20045;-47
2021/05/23 01:19:33;;;;;;;3.97;3.63;;;10.30;99.90;;;;;;5026782;28;20479;-47
2021/05/23 01:22:11;;;;;;;7.00;3.70;;;10.30;99.90;;;;;;5028850;28;20025;-46
2021/05/23 01:24:59;;;;;;;4.60;3.55;;;10.30;99.90;;;;;;5028861;28;20037;-46
2021/05/23 01:27:34;;;;;;;3.72;3.30;;;10.40;99.90;;;;;;5028080;28;20095;-46
2021/05/23 01:30:00;;;;;;;4.05;3.22;;;10.40;99.90;;;;;;5028907;28;20029;-45
2021/05/23 01:32:26;;;;;;;4.53;3.60;;;10.40;99.90;;;;;;5028732;28;20326;-46
2021/05/23 01:34:51;;;;;;;4.00;3.63;;;10.40;99.90;;;;;;5028526;28;20113;-46
2021/05/23 01:37:23;;;;;;;6.93;3.60;;;10.40;99.90;;;;;;5026636;28;20025;-45
2021/05/23 01:39:49;;;;;;;4.30;3.45;;;10.40;99.90;;;;;;5028695;28;20017;-45
2021/05/23 01:42:16;;;;;;;3.40;3.10;;;10.40;99.90;;;;;;5028592;28;20056;-45
2021/05/23 01:44:42;;;;;;;3.70;3.10;;;10.40;99.90;;;;;;5027348;28;20136;-45
2021/05/23 01:47:07;;;;;;;4.47;3.47;;;10.40;99.90;;;;;;5032940;28;20246;-45
2021/05/23 01:49:33;;;;;;;3.78;3.08;;;10.40;99.90;;;;;;5032186;28;20099;-45
2021/05/23 01:51:58;;;;;;;4.25;2.92;;;10.40;99.90;;;;;;5031978;28;20037;-46
2021/05/23 01:54:24;;;;;;;3.53;3.00;;;10.40;99.90;;;;;;5032502;28;20033;-45
2021/05/23 01:56:50;;;;;;;3.83;3.13;;;10.30;99.90;;;;;;5032419;28;20407;-45
2021/05/23 01:59:15;;;;;;;3.17;2.88;;;10.40;99.90;;;;;;5031736;28;20319;-46
2021/05/23 02:01:41;;;;;;;4.18;3.00;;;10.40;99.90;;;;;;5032151;28;20029;-46
2021/05/23 02:04:06;;;;;;;4.05;2.70;;;10.30;99.90;;;;;;5030595;28;20049;-45
2021/05/23 02:06:32;;;;;;;3.20;2.75;;;10.20;99.90;;;;;;5030778;28;20025;-46
2021/05/23 02:08:57;;;;;;;3.00;2.70;;;10.30;99.90;;;;;;5031671;28;20110;-46
2021/05/23 02:11:23;;;;;;;3.53;2.78;;;10.30;99.90;;;;;;5032197;28;20462;-46
2021/05/23 02:13:53;;;;;;;3.75;3.33;;;10.30;99.90;;;;;;5032002;28;20025;-46
2021/05/23 02:16:19;;;;;;;2.85;2.40;;;10.30;99.90;;;;;;5031958;28;20028;-47
2021/05/23 02:18:45;;;;;;;3.70;2.83;;;10.30;99.90;;;;;;5030716;28;20030;-46
2021/05/23 02:21:14;;;;;;;2.47;2.28;;;10.30;99.90;;;;;;5032207;28;20025;-45
2021/05/23 02:23:51;;;;;;;2.85;2.53;;;10.30;99.90;;;;;;5031407;28;20357;-45
2021/05/23 02:26:17;;;;;;;2.97;2.67;;;10.20;99.90;;;;;;5030562;28;20029;-46
2021/05/23 02:28:42;;;;;;;4.50;2.63;;;10.20;99.90;;;;;;5031179;28;20107;-47
2021/05/23 02:31:08;;;;;;;3.28;2.97;;;10.20;99.90;;;;;;5030267;28;21908;-45
2021/05/23 02:33:33;;;;;;;3.70;2.30;;;10.20;99.90;;;;;;5041899;28;20045;-45
2021/05/23 02:35:59;;;;;;;3.47;2.95;;;10.20;99.90;;;;;;5040068;28;20310;-46
2021/05/23 02:38:26;;;;;;;3.80;2.70;;;10.20;99.90;;;;;;5040206;28;20032;-45
2021/05/23 02:40:52;;;;;;;3.47;2.67;;;10.20;99.90;;;;;;5041855;28;20025;-47
2021/05/23 02:43:19;;;;;;;5.40;2.75;;;10.20;99.90;;;;;;5041218;28;20031;-46
2021/05/23 02:45:45;;;;;;;2.65;2.45;;;10.10;99.90;;;;;;5040546;28;20062;-45
2021/05/23 02:48:11;;;;;;;4.32;3.05;;;10.20;99.90;;;;;;5033300;28;20032;-47
2021/05/23 02:50:40;;;;;;;3.88;2.75;;;10.10;99.90;;;;;;5030992;28;20418;-46
2021/05/23 02:53:06;;;;;;;2.95;2.40;;;10.10;99.90;;;;;;5031126;28;20017;-47
2021/05/23 02:55:33;;;;;;;4.25;2.80;;;10.10;99.90;;;;;;5031499;28;20017;-48
2021/05/23 02:57:59;;;;;;;3.80;2.75;;;10.10;99.90;;;;;;5031198;28;20022;-48
2021/05/23 03:00:24;;;;;;;3.35;2.42;;;10.10;99.90;;;;;;5029602;28;20032;-45
2021/05/23 03:02:51;;;;;;;3.50;2.40;;;10.10;99.90;;;;;;5031115;28;20025;-46
2021/05/23 03:05:19;;;;;;;3.92;2.60;;;10.10;99.90;;;;;;5029981;28;20029;-46
2021/05/23 03:07:47;;;;;;;7.10;3.15;;;10.10;99.90;;;;;;5030585;28;20052;-46
2021/05/23 03:10:16;;;;;;;3.83;2.70;;;10.10;99.90;;;;;;5031735;28;20036;-46
2021/05/23 03:12:42;;;;;;;3.60;2.28;;;10.10;99.90;;;;;;5031068;28;20215;-46
2021/05/23 03:15:10;;;;;;;4.20;2.30;;;10.10;99.90;;;;;;5029413;28;20038;-46
2021/05/23 03:17:36;;;;;;;3.17;2.33;;;10.10;99.90;;;;;;5037315;28;20277;-49
2021/05/23 03:20:04;;;;;;;4.35;2.08;;;10.10;99.90;;;;;;5034265;28;20025;-48
2021/05/23 03:22:29;;;;;;;5.10;2.70;;;10.10;99.90;;;;;;5041767;28;20017;-49
2021/05/23 03:24:56;;;;;;;6.60;2.80;;;10.10;99.90;;;;;;5040413;28;20036;-46
2021/05/23 03:27:21;;;;;;;3.95;2.22;;;10.20;99.90;;;;;;5039681;28;20100;-46
2021/05/23 03:29:47;;;;;;;4.25;2.17;;;10.20;99.90;;;;;;5040700;28;20113;-46
2021/05/23 03:32:12;;;;;;;3.70;2.75;;;10.10;99.90;;;;;;5040890;28;20155;-45
2021/05/23 03:34:38;;;;;;;3.20;2.20;;;10.00;99.90;;;;;;5037840;28;20025;-46
2021/05/23 03:37:03;;;;;;;4.32;3.72;;;10.00;99.90;;;;;;5041154;28;20107;-46
2021/05/23 03:39:29;;;;;;;4.05;2.63;;;10.00;99.90;;;;;;5038460;28;20422;-46
2021/05/23 03:41:54;;;;;;;4.50;2.92;;;10.10;99.90;;;;;;5041868;28;20037;-46
2021/05/23 03:44:19;;;;;;;6.82;3.20;;;10.10;99.90;;;;;;5030705;28;20075;-46
2021/05/23 03:46:45;;;;;;;2.88;2.60;;;10.00;99.90;;;;;;5030702;28;20197;-47
2021/05/23 03:49:10;;;;;;;3.97;2.67;;;10.00;99.90;;;;;;5029507;28;20472;-46
2021/05/23 03:51:36;;;;;;;4.25;2.33;;;10.10;99.90;;;;;;5030278;28;20029;-46
2021/05/23 03:54:02;;;;;;;5.47;3.33;;;10.10;99.90;;;;;;5029337;28;20538;-46
2021/05/23 03:56:27;;;;;;;5.28;3.30;;;10.10;99.90;;;;;;5030184;28;20025;-48
2021/05/23 03:58:53;;;;;;;3.65;3.15;;;10.10;99.90;;;;;;5029759;28;20361;-46
2021/05/23 04:01:18;;;;;;;4.35;2.90;;;10.00;99.90;;;;;;5030183;28;20059;-47
2021/05/23 04:03:43;;;;;;;4.18;2.88;;;10.00;99.90;;;;;;5030339;28;20029;-46
2021/05/23 04:06:09;;;;;;;5.15;2.90;;;10.00;99.90;;;;;;5030165;28;20033;-46
2021/05/23 04:08:35;;;;;;;4.93;3.55;;;9.90;99.90;;;;;;5028308;28;20033;-46
2021/05/23 04:11:08;;;;;;;5.45;3.60;;;9.90;99.90;;;;;;5030040;28;20037;-47
2021/05/23 04:13:35;;;;;;;4.97;4.47;;;9.80;99.90;;;;;;5029778;28;20567;-46
2021/05/23 04:16:00;;;;;;;4.13;3.60;;;9.80;99.90;;;;;;5029956;28;20078;-46
2021/05/23 04:18:26;;;;;;;4.80;3.65;;;9.70;99.90;;;;;;5028624;28;20120;-46
2021/05/23 04:20:51;;;;;;;6.32;3.55;;;9.70;99.90;;;;;;5028116;28;20022;-45
2021/05/23 04:23:17;;;;;;;4.25;3.22;;;9.60;99.90;;;;;;5029665;28;20025;-46
2021/05/23 04:25:42;;;;;;;4.35;3.60;;;9.60;99.90;;;;;;5029623;28;20049;-46
2021/05/23 04:28:08;;;;;;;4.13;3.72;;;9.60;99.90;;;;;;5029196;28;20230;-46
2021/05/23 04:30:33;;;;;;;6.18;4.55;;;9.60;99.90;;;;;;5029670;28;20028;-47
2021/05/23 04:32:59;;;;;;;7.82;5.18;;;9.50;99.90;;;;;;5029656;28;20021;-46
2021/05/23 04:35:25;;;;;;;5.43;4.63;;;9.50;99.90;;;;;;5029263;28;20032;-46
2021/05/23 04:37:51;;;;;;;7.63;4.57;;;9.50;99.90;;;;;;5028701;28;20033;-46
2021/05/23 04:40:17;;;;;;;9.75;4.40;;;9.50;99.90;;;;;;5028043;28;20025;-47
2021/05/23 04:42:44;;;;;;;5.35;4.40;;;9.50;99.90;;;;;;5029856;28;20037;-46
2021/05/23 04:45:10;;;;;;;6.72;5.63;;;9.60;99.90;;;;;;5029385;28;20026;-46
2021/05/23 04:47:36;;;;;;;7.22;5.25;;;9.60;99.90;;;;;;5028619;28;20029;-46
2021/05/23 04:50:04;;;;;;;9.00;5.57;;;9.50;99.90;;;;;;5028790;28;20033;-47
2021/05/23 04:52:29;;;;;;;7.82;5.10;;;9.50;99.90;;;;;;5027715;28;20028;-45
2021/05/23 04:54:55;;;;;;;8.10;5.93;;;9.60;99.90;;;;;;5028301;28;20033;-46
2021/05/23 04:57:21;;;;;;;9.32;5.88;;;9.60;99.90;;;;;;5029061;28;20407;-45
2021/05/23 04:59:47;;;;;;;8.65;6.25;;;9.60;99.90;;;;;;5028990;28;20033;-46
2021/05/23 05:02:13;;;;;;;7.65;6.00;;;9.70;99.90;;;;;;5029093;28;20021;-46
2021/05/23 05:04:38;;;;;;;8.50;5.88;;;9.70;99.90;;;;;;5028448;28;20529;-46
2021/05/23 05:07:04;;;;;;;7.45;5.68;;;9.80;99.90;;;;;;5028938;28;20043;-46
2021/05/23 05:09:29;;;;;;;6.68;5.18;;;9.90;99.90;;;;;;5026760;28;20030;-46
2021/05/23 05:11:55;;;;;;;7.43;5.30;;;9.90;99.90;;;;;;5028745;28;20049;-46
2021/05/23 05:14:20;;;;;;;9.85;6.35;;;10.00;99.90;;;;;;5028761;28;20113;-46
2021/05/23 05:16:46;;;;;;;9.35;6.13;;;10.00;99.90;;;;;;5028238;28;20037;-45
2021/05/23 05:19:12;;;;;;;10.18;6.38;;;10.00;99.90;;;;;;5027673;28;20026;-48
2021/05/23 05:21:37;;;;;;;10.52;6.38;;;9.90;99.90;;;;;;5028579;28;20466;-45
2021/05/23 05:24:03;;;;;;;9.25;6.05;;;10.00;99.90;;;;;;5028704;28;20641;-47
2021/05/23 05:26:30;;;;;;;9.65;6.30;;;9.90;99.90;;;;;;5032023;28;20426;-47
2021/05/23 05:28:55;;;;;;;8.38;6.10;;;9.90;99.90;;;;;;5037206;28;20025;-46
2021/05/23 05:31:22;;;;;;;8.65;6.88;;;10.00;99.90;;;;;;5039208;28;20395;-45
2021/05/23 05:33:48;;;;;;;13.63;7.15;;;10.00;99.90;;;;;;5037154;28;20025;-45
2021/05/23 05:36:13;;;;;;;10.65;6.82;;;10.10;99.90;;;;;;5039254;28;20021;-45
2021/05/23 05:38:39;;;;;;;13.63;6.75;;;10.10;99.90;;;;;;5038286;28;20032;-45
2021/05/23 05:41:04;;;;;;;14.18;7.85;;;10.20;99.90;;;;;;5036430;28;20025;-45
2021/05/23 05:43:30;;;;;;;9.88;6.60;;;10.10;99.90;;;;;;5037553;28;20538;-45
2021/05/23 05:45:55;;;;;;;9.55;7.43;;;10.10;99.90;;;;;;5039941;28;20026;-46
2021/05/23 05:48:22;;;;;;;11.55;7.20;;;10.00;99.90;;;;;;5036600;28;20482;-45
2021/05/23 05:50:47;;;;;;;9.02;7.10;;;10.00;99.90;;;;;;5038957;28;20024;-45
2021/05/23 05:53:13;;;;;;;16.50;6.82;;;10.10;99.90;;;;;;5037673;28;20540;-45
2021/05/23 05:55:38;;;;;;;9.45;6.97;;;10.20;99.90;;;;;;5039154;28;20557;-46
2021/05/23 05:58:04;;;;;;;12.73;7.43;;;10.20;99.90;;;;;;5036608;28;20056;-46
2021/05/23 06:00:29;;;;;;;10.55;6.50;;;10.30;99.90;;;;;;5038896;28;20657;-45
2021/05/23 06:02:55;;;;;;;12.52;6.88;;;10.30;99.90;;;;;;5037195;28;20094;-44
2021/05/23 06:05:20;;;;;;;15.68;7.00;;;10.30;99.90;;;;;;5035991;28;20143;-45
2021/05/23 06:07:46;;;;;;;12.85;6.80;;;10.30;99.90;;;;;;5037550;28;20042;-44
2021/05/23 06:10:14;;;;;;;12.85;7.70;;;10.40;99.90;;;;;;5039161;28;20051;-47
2021/05/23 06:12:41;;;;;;;13.05;6.47;;;10.40;99.90;;;;;;5038110;28;20107;-46
2021/05/23 06:15:08;;;;;;;10.85;6.75;;;10.50;99.90;;;;;;5037142;28;20021;-45
2021/05/23 06:17:34;;;;;;;11.43;6.35;;;10.60;99.90;;;;;;5040469;28;20025;-47
2021/05/23 06:19:59;;;;;;;11.07;5.95;;;10.50;99.90;;;;;;5037835;28;20028;-46
2021/05/23 06:22:25;;;;;;;7.20;5.93;;;10.60;99.90;;;;;;5046976;28;20478;-46
2021/05/23 06:24:50;;;;;;;13.25;5.82;;;10.60;99.90;;;;;;5048177;28;20028;-46
2021/05/23 06:27:16;;;;;;;11.45;6.10;;;10.70;99.90;;;;;;5047794;28;20104;-45
2021/05/23 06:29:43;;;;;;;10.10;5.20;;;10.80;99.90;;;;;;5046167;28;20036;-45
2021/05/23 06:32:09;;;;;;;7.18;5.55;;;10.90;99.90;;;;;;5050921;28;20024;-46
2021/05/23 06:34:34;;;;;;;7.78;4.90;;;11.10;99.90;;;;;;5049912;28;20029;-45
2021/05/23 06:37:00;;;;;;;15.20;7.28;;;11.30;99.90;;;;;;5051627;28;20100;-48
2021/05/23 06:39:26;;;;;;;14.05;6.10;;;11.30;99.90;;;;;;5051037;28;20044;-48
2021/05/23 06:41:51;;;;;;;9.38;5.72;;;11.20;99.90;;;;;;5051650;28;20020;-46
2021/05/23 06:44:18;;;;;;;12.15;6.38;;;11.30;99.90;;;;;;5051853;28;20021;-45
2021/05/23 06:46:44;;;;;;;12.52;7.15;;;11.10;99.90;;;;;;5051562;28;20017;-47
2021/05/23 06:49:09;;;;;;;12.65;6.80;;;11.10;99.90;;;;;;5047515;28;20395;-47
2021/05/23 06:51:35;;;;;;;10.57;7.43;;;11.00;99.90;;;;;;5038534;28;20029;-46
2021/05/23 06:54:00;;;;;;;13.27;7.63;;;11.20;99.90;;;;;;5041441;28;20025;-46
2021/05/23 06:56:26;;;;;;;18.38;8.52;;;11.30;99.90;;;;;;5040499;28;20017;-48
2021/05/23 06:58:51;;;;;;;10.23;6.65;;;11.40;99.90;;;;;;5041765;28;20059;-48
2021/05/23 07:01:17;;;;;;;10.45;6.57;;;11.60;99.90;;;;;;5040560;28;20462;-45
2021/05/23 07:03:42;;;;;;;13.90;6.50;;;11.50;99.90;;;;;;5040621;28;20041;-49
2021/05/23 07:06:09;;;;;;;9.30;6.28;;;11.60;99.90;;;;;;5045095;28;20493;-47
2021/05/23 07:08:34;;;;;;;11.30;6.13;;;11.80;99.90;;;;;;5050492;28;20083;-49
2021/05/23 07:11:00;;;;;;;9.05;6.63;;;12.00;99.90;;;;;;5050669;28;20048;-48
2021/05/23 07:13:26;;;;;;;13.23;7.60;;;11.90;99.90;;;;;;5038073;28;20041;-47
2021/05/23 07:15:53;;;;;;;11.85;6.60;;;11.90;99.90;;;;;;5041416;28;20013;-46
2021/05/23 07:18:19;;;;;;;11.27;6.72;;;12.00;99.90;;;;;;5037862;28;20021;-47
2021/05/23 07:20:45;;;;;;;8.98;5.90;;;12.00;99.90;;;;;;5040164;28;20072;-54
2021/05/23 07:23:12;;;;;;;12.80;6.63;;;12.10;99.90;;;;;;5038490;28;20037;-46
2021/05/23 07:25:37;;;;;;;13.93;6.90;;;12.20;99.90;;;;;;5032792;28;20036;-48
2021/05/23 07:28:03;;;;;;;14.57;6.88;;;12.30;99.90;;;;;;5031479;28;20033;-49
2021/05/23 07:30:29;;;;;;;12.98;7.03;;;12.30;99.90;;;;;;5032125;28;20025;-46
2021/05/23 07:32:54;;;;;;;12.25;6.88;;;12.20;99.90;;;;;;5030826;28;20041;-47
2021/05/23 07:35:20;;;;;;;12.25;6.97;;;12.10;99.90;;;;;;5031053;28;20036;-46
2021/05/23 07:37:45;;;;;;;10.85;7.60;;;11.90;99.90;;;;;;5029546;28;20032;-45
2021/05/23 07:40:12;;;;;;;13.57;7.40;;;11.90;99.90;;;;;;5030382;28;20033;-45
2021/05/23 07:42:38;;;;;;;10.80;7.47;;;11.80;99.90;;;;;;5029134;28;20159;-46
2021/05/23 07:45:05;;;;;;;14.00;8.15;;;11.60;99.90;;;;;;5030220;28;20501;-47
2021/05/23 07:47:31;;;;;;;12.40;7.85;;;11.50;99.90;;;;;;5036474;28;20035;-46
2021/05/23 07:49:56;;;;;;;18.50;8.38;;;11.50;99.90;;;;;;5050028;28;20495;-46
2021/05/23 07:52:22;;;;;;;17.38;8.82;;;11.50;99.90;;;;;;5049837;28;20036;-47
2021/05/23 07:54:48;;;;;;;12.27;8.45;;;11.60;99.90;;;;;;5050037;28;20029;-47
2021/05/23 07:57:13;;;;;;;13.27;8.32;;;11.80;99.90;;;;;;5050092;28;20013;-46
2021/05/23 07:59:39;;;;;;;17.58;8.40;;;11.90;99.90;;;;;;5049391;28;20104;-46
2021/05/23 08:02:05;;;;;;;13.15;8.88;;;12.00;99.90;;;;;;5050306;28;20360;-45
2021/05/23 08:04:31;;;;;;;12.63;7.88;;;12.00;99.90;;;;;;5050240;28;20025;-49
2021/05/23 08:06:57;;;;;;;12.07;8.07;;;12.30;99.90;;;;;;5050121;28;20025;-47
2021/05/23 08:09:22;;;;;;;9.63;6.68;;;12.50;99.90;;;;;;5049164;28;20475;-48
2021/05/23 08:11:48;;;;;;;14.80;8.10;;;12.80;99.90;;;;;;5049711;28;20113;-45
2021/05/23 08:14:15;;;;;;;16.15;7.80;;;12.70;99.90;;;;;;5049589;28;20025;-46
2021/05/23 08:16:43;;;;;;;14.45;6.82;;;13.00;99.90;;;;;;5050353;28;20482;-49
2021/05/23 08:19:09;;;;;;;10.93;6.95;;;13.60;99.90;;;;;;5049106;28;20025;-45
2021/05/23 08:21:34;;;;;;;11.05;7.03;;;14.00;99.90;;;;;;5046414;28;20028;-46
2021/05/23 08:24:00;;;;;;;15.05;7.07;;;14.20;99.90;;;;;;5029613;28;20546;-48
2021/05/23 08:26:25;;;;;;;12.60;5.35;;;14.60;99.90;;;;;;5029747;28;20112;-46
2021/05/23 08:28:51;;;;;;;12.38;4.75;;;15.80;99.90;;;;;;5029070;28;20034;-48
2021/05/23 08:31:16;;;;;;;9.35;4.13;;;17.00;99.90;;;;;;5029531;28;20494;-47
2021/05/23 08:33:42;;;;;;;6.03;3.22;;;17.20;99.90;;;;;;5029286;28;20029;-48
2021/05/23 08:36:08;;;;;;;5.97;3.70;;;17.60;99.40;;;;;;5029481;28;20119;-46
2021/05/23 08:38:34;;;;;;;7.85;3.47;;;17.60;94.90;;;;;;5029188;28;20083;-46
2021/05/23 08:41:00;;;;;;;9.40;4.20;;;16.80;97.10;;;;;;5027877;28;20049;-49
2021/05/23 08:43:28;;;;;;;6.15;4.10;;;17.00;99.20;;;;;;5029587;28;20021;-47
2021/05/23 08:45:54;;;;;;;7.35;4.00;;;17.00;98.30;;;;;;5029067;28;20021;-48
2021/05/23 08:48:20;;;;;;;5.65;2.88;;;17.50;97.90;;;;;;5028834;28;20021;-47
2021/05/23 08:50:47;;;;;;;7.30;3.80;;;17.50;97.20;;;;;;5029149;28;20400;-47
2021/05/23 08:53:13;;;;;;;7.38;3.20;;;17.40;98.80;;;;;;5027306;28;20455;-48
2021/05/23 08:55:38;;;;;;;6.57;3.45;;;17.50;98.60;;;;;;5027582;28;20051;-47
2021/05/23 08:58:05;;;;;;;5.78;3.30;;;17.60;97.70;;;;;;5028346;28;20025;-47
2021/05/23 09:00:32;;;;;;;4.57;2.97;;;17.00;97.30;;;;;;5029018;28;20026;-46
2021/05/23 09:03:01;;;;;;;4.88;3.30;;;17.00;99.90;;;;;;5038667;28;20342;-46
2021/05/23 09:05:33;;;;;;;4.80;3.20;;;17.10;97.10;;;;;;5047506;28;20115;-46
2021/05/23 09:08:00;;;;;;;4.70;2.83;;;15.80;99.00;;;;;;5047278;28;20021;-48
2021/05/23 09:10:29;;;;;;;3.42;2.78;;;15.40;99.90;;;;;;5048378;28;20043;-47
2021/05/23 09:12:54;;;;;;;4.72;3.35;;;15.20;99.90;;;;;;5047840;28;20033;-47
2021/05/23 09:15:20;;;;;;;5.30;3.08;;;14.80;99.90;;;;;;5047650;28;20029;-47
2021/05/23 09:17:46;;;;;;;6.68;3.20;;;14.50;99.90;;;;;;5047543;28;20129;-47
2021/05/23 09:20:18;;;;;;;2.75;2.47;;;14.40;99.90;;;;;;5047878;28;20104;-46
2021/05/23 09:22:50;;;;;;;4.35;3.20;;;14.50;99.90;;;;;;5035513;28;20172;-49
2021/05/23 09:25:28;;;;;;;4.82;3.80;;;14.30;99.90;;;;;;5030580;28;20120;-48
2021/05/23 09:27:53;;;;;;;4.63;3.70;;;14.00;99.90;;;;;;5036312;28;20475;-48
2021/05/23 09:30:22;;;;;;;7.93;4.10;;;13.60;99.90;;;;;;5034935;28;20079;-46
2021/05/23 09:32:49;;;;;;;7.28;3.92;;;13.50;99.90;;;;;;5033148;28;20344;-46
2021/05/23 09:35:15;;;;;;;3.75;3.40;;;13.40;99.90;;;;;;5047918;28;20025;-47
2021/05/23 09:37:42;;;;;;;5.00;3.83;;;13.60;99.90;;;;;;5048226;28;20032;-47
2021/05/23 09:40:20;;;;;;;6.65;3.90;;;13.70;99.90;;;;;;5049172;28;20028;-45
2021/05/23 09:42:51;;;;;;;5.88;3.53;;;14.00;99.90;;;;;;5049079;28;20029;-48
2021/05/23 09:45:18;;;;;;;6.00;3.58;;;14.30;99.90;;;;;;5049082;28;20037;-46
2021/05/23 09:47:54;;;;;;;7.32;3.35;;;14.20;99.90;;;;;;5048575;28;20028;-45
2021/05/23 09:50:32;;;;;;;5.50;3.65;;;14.40;99.90;;;;;;5040209;28;20075;-47
2021/05/23 09:52:58;;;;;;;5.90;3.13;;;14.20;99.90;;;;;;5039877;28;20036;-47
2021/05/23 09:55:24;;;;;;;4.18;3.35;;;13.90;99.90;;;;;;5038728;28;20033;-47
2021/05/23 09:57:49;;;;;;;5.93;3.63;;;13.90;99.90;;;;;;5038873;28;20017;-46
2021/05/23 10:00:15;;;;;;;6.18;4.20;;;14.00;99.90;;;;;;5038989;28;20084;-46
2021/05/23 10:02:58;;;;;;;4.50;3.90;;;14.10;99.90;;;;;;5036179;28;20033;-46
2021/05/23 10:05:25;;;;;;;4.13;3.60;;;14.10;99.90;;;;;;5037275;28;20030;-46
2021/05/23 10:07:51;;;;;;;7.78;4.50;;;13.90;99.90;;;;;;5037734;28;20678;-48
2021/05/23 10:10:17;;;;;;;5.93;3.92;;;13.70;99.90;;;;;;5033414;28;20026;-47
2021/05/23 10:12:44;;;;;;;5.47;4.30;;;13.80;99.90;;;;;;5032640;28;20636;-47
2021/05/23 10:15:11;;;;;;;4.03;3.47;;;13.90;99.90;;;;;;5032972;28;20101;-45
2021/05/23 10:17:38;;;;;;;4.57;3.72;;;14.50;99.90;;;;;;5032704;28;20980;-46
2021/05/23 10:20:11;;;;;;;6.15;3.38;;;15.00;99.90;;;;;;5033556;28;20044;-47
2021/05/23 10:22:39;;;;;;;3.67;2.60;;;15.20;99.90;;;;;;5032487;28;20108;-47
2021/05/23 10:25:13;;;;;;;2.47;2.28;;;15.60;99.90;;;;;;5033357;28;20655;-45
2021/05/23 10:27:42;;;;;;;3.58;2.10;;;15.60;99.90;;;;;;5032419;28;20033;-48
2021/05/23 10:30:09;;;;;;;5.57;2.65;;;16.10;99.90;;;;;;5033306;28;20036;-49
2021/05/23 10:32:37;;;;;;;4.35;2.53;;;15.50;99.90;;;;;;5033361;28;20033;-47
2021/05/23 10:35:19;;;;;;;4.10;2.30;;;14.90;99.90;;;;;;5033304;28;20023;-47
2021/05/23 10:37:47;;;;;;;2.22;2.00;;;14.70;99.90;;;;;;5032245;28;20039;-45
2021/05/23 10:40:20;;;;;;;2.38;2.15;;;14.80;99.90;;;;;;5033133;28;20026;-49
2021/05/23 10:42:54;;;;;;;3.58;2.60;;;14.70;99.90;;;;;;5031793;28;20029;-46
2021/05/23 10:45:34;;;;;;;3.35;2.08;;;14.70;99.90;;;;;;5032973;28;20036;-45
2021/05/23 10:48:14;;;;;;;1.42;1.33;;;14.70;99.90;;;;;;5034955;28;20025;-46
2021/05/23 10:50:41;;;;;;;2.17;1.95;;;14.90;99.90;;;;;;5044412;28;20037;-46
2021/05/23 10:53:07;;;;;;;2.22;1.80;;;15.30;99.90;;;;;;5043749;28;20390;-46
2021/05/23 10:55:34;;;;;;;1.88;1.35;;;15.30;99.90;;;;;;5042141;28;20029;-46
2021/05/23 10:58:00;;;;;;;2.85;2.15;;;15.70;99.90;;;;;;5034895;28;20096;-46
2021/05/23 11:00:28;;;;;;;1.90;1.63;;;16.00;99.90;;;;;;5039046;28;20036;-45
2021/05/23 11:02:55;;;;;;;2.13;1.70;;;16.40;99.90;;;;;;5042091;28;20434;-46
2021/05/23 11:05:30;;;;;;;2.97;1.80;;;16.60;99.20;;;;;;5041762;28;20083;-49
2021/05/23 11:08:04;;;;;;;2.70;2.50;;;16.70;97.70;;;;;;5043416;28;20036;-46
2021/05/23 11:10:40;;;;;;;1.90;1.70;;;17.20;96.70;;;;;;5033487;28;20057;-48
2021/05/23 11:13:07;;;;;;;2.58;1.98;;;17.70;92.60;;;;;;5029175;28;20410;-46
2021/05/23 11:15:41;;;;;;;2.40;1.40;;;18.50;91.40;;;;;;5030755;28;20026;-48
2021/05/23 11:18:07;;;;;;;1.50;1.40;;;19.90;85.70;;;;;;5029520;28;20029;-46
2021/05/23 11:20:32;;;;;;;2.22;1.58;;;21.30;77.40;;;;;;5030712;28;20021;-47
2021/05/23 11:23:01;;;;;;;2.97;1.75;;;21.50;68.90;;;;;;5040844;28;20390;-47
2021/05/23 11:25:27;;;;;;;3.00;1.83;;;22.40;71.10;;;;;;5039879;28;20378;-49
2021/05/23 11:28:01;;;;;;;2.53;2.20;;;23.10;64.70;;;;;;5039787;28;20040;-47
2021/05/23 11:30:38;;;;;;;2.00;1.90;;;22.40;61.70;;;;;;5040881;28;20041;-46
2021/05/23 11:33:05;;;;;;;1.88;1.70;;;20.80;66.60;;;;;;5033145;28;20021;-47
2021/05/23 11:35:32;;;;;;;1.98;1.48;;;19.90;70.30;;;;;;5031492;28;20034;-47
2021/05/23 11:37:58;;;;;;;2.60;1.33;;;18.80;72.00;;;;;;5030179;28;20017;-47
2021/05/23 11:40:30;;;;;;;2.45;1.65;;;18.20;74.50;;;;;;5031498;28;20029;-46
2021/05/23 11:43:06;;;;;;;1.75;1.65;;;18.20;74.70;;;;;;5031520;28;20518;-47
2021/05/23 11:45:32;;;;;;;1.70;1.60;;;17.60;76.50;;;;;;5035274;28;20102;-46
2021/05/23 11:48:06;;;;;;;2.42;2.22;;;17.70;79.50;;;;;;5037771;28;20037;-46
2021/05/23 11:50:31;;;;;;;2.38;2.17;;;17.60;76.30;;;;;;5032936;28;20065;-46
2021/05/23 11:52:57;;;;;;;2.00;1.80;;;16.90;82.10;;;;;;5029423;28;20061;-49
2021/05/23 11:55:25;;;;;;;2.08;1.90;;;16.70;83.00;;;;;;5029977;28;20022;-47
2021/05/23 11:58:02;;;;;;;2.10;2.00;;;16.60;84.50;;;;;;5028811;28;20040;-45
2021/05/23 12:00:27;;;;;;;2.15;1.73;;;16.30;89.30;;;;;;5029594;28;20110;-46
2021/05/23 12:02:57;;;;;;;2.47;1.63;;;16.60;89.70;;;;;;5029889;28;20471;-46
2021/05/23 12:05:35;;;;;;;2.08;1.85;;;16.70;87.90;;;;;;5029677;28;20451;-45
2021/05/23 12:08:01;;;;;;;1.50;1.40;;;16.30;87.90;;;;;;5056849;28;20513;-46
2021/05/23 12:10:26;;;;;;;1.40;1.30;;;16.10;90.50;;;;;;5049352;28;20040;-46
2021/05/23 12:12:52;;;;;;;1.55;1.10;;;16.20;91.70;;;;;;5034144;28;20034;-46
2021/05/23 12:15:21;;;;;;;1.25;1.17;;;15.90;91.30;;;;;;5029066;28;20026;-46
2021/05/23 12:17:54;;;;;;;1.30;1.20;;;15.90;93.20;;;;;;5030974;28;20330;-46
2021/05/23 12:20:19;;;;;;;1.40;1.30;;;16.10;92.20;;;;;;5029331;28;20100;-47
2021/05/23 12:22:49;;;;;;;1.60;1.50;;;15.80;92.10;;;;;;5028587;28;20135;-46
2021/05/23 12:25:16;;;;;;;1.63;1.52;;;15.80;94.60;;;;;;5029946;28;20099;-46
2021/05/23 12:27:41;;;;;;;1.52;1.38;;;16.00;94.80;;;;;;5027784;28;20056;-46
2021/05/23 12:30:13;;;;;;;2.05;1.30;;;16.40;93.00;;;;;;5029265;28;20034;-46
2021/05/23 12:33:08;;;;;;;3.05;1.58;;;16.20;95.40;;;;;;5030086;28;20029;-45
2021/05/23 12:35:35;;;;;;;1.52;1.42;;;16.70;93.70;;;;;;5020810;28;20483;-49
2021/05/23 12:38:19;;;;;;;1.38;1.20;;;16.10;92.60;;;;;;5028899;28;20026;-46
2021/05/23 12:40:50;;;;;;;1.45;1.30;;;16.20;94.80;;;;;;5029945;28;20497;-48
2021/05/23 12:43:35;;;;;;;1.20;1.10;;;16.30;92.70;;;;;;5029655;28;20470;-49
2021/05/23 12:46:02;;;;;;;1.67;1.45;;;16.40;93.60;;;;;;5029506;28;20184;-46